BARRY-ROUBAIX
MARCH 24, 2012
MIDDLEVILLE, MICHIGAN
TIMING BY: RACE SERVICES COMPANY
36 MILE OVERALL RESULTS
Excluding Tandems

Place No. Name Team Age Event Time Rate
1 1249 Jordan Diekema Ascension Cycling 22 20-29 Men 36 Mile 1:44:07 20.7
2 1992 Michael Wissink Specialized 42 Men Single Speed 36 Mile 1:44:07 20.7
3 1143 Don Cameron Specialized 46 45-49 Men 36 Mile 1:44:13 20.7
4 2010 Jason Young Team Priority Health 36 35-39 Men 36 Mile 1:45:21 20.5
5 1040 Simon Bailey 38 35-39 Men 36 Mile 1:46:13 20.3
6 1712 Rudy Peterson Kinetic Systems 17 11-19 Men 36 Mile 1:47:22 20.1
7 1912 Chad Tieman 24 20-29 Men 36 Mile 1:47:55 20.0
8 1407 Erik Herro Pegasus 31 30-34 Men 36 Mile 1:47:56 20.0
9 1020 Todd Andersen Men Of Steel Racing 49 45-49 Men 36 Mile 1:47:58 20.0
10 1792 Niel Scharphorn Cross Country Cycle 46 45-49 Men 36 Mile 1:48:00 20.0
11 1348 Jesse Gould Assenmachers 27 20-29 Men 36 Mile 1:48:08 20.0
12 1617 Sean Metz Team Tf 28 20-29 Men 36 Mile 1:48:13 20.0
13 1518 Patrick Kulwicki Spin Zone Racing 27 20-29 Men 36 Mile 1:48:22 19.9
14 1760 Maxwell Riordan Chicago Cuttin Crew 29 20-29 Men 36 Mile 1:48:23 19.9
15 1450 Mike Jones Priority Health Cycling 50 50-54 Men 36 Mile 1:48:42 19.9
16 1187 Mike Conroy Mox Multisport 27 20-29 Men 36 Mile 1:48:55 19.8
17 1754 Jesse Riegle Cms Race Team 31 30-34 Men 36 Mile 1:49:19 19.8
18 1888 Kelly Sugg Klm/ Cold Stone 24 20-29 Men 36 Mile 1:49:25 19.7
19 1158 William Cawthorn Ann Arbor Velo Club 29 20-29 Men 36 Mile 1:49:47 19.7
20 1584 Joseph Martin Spin Zone Racing 35 35-39 Men 36 Mile 1:49:53 19.7
21 1979 Mike Wheeler Rbikes.Com 43 40-44 Men 36 Mile 1:49:54 19.7
22 1583 Bill Martin Spin Zone Racing 37 35-39 Men 36 Mile 1:49:54 19.7
23 1404 Lewis Henrickson Cms 25 20-29 Men 36 Mile 1:49:58 19.6
24 1576 Ben Marchewka Team Pedal Moraine 28 20-29 Men 36 Mile 1:49:58 19.6
25 1879 Scott Steurer Priority Health Cycling Team 51 50-54 Men 36 Mile 1:49:58 19.6
26 1660 Michael Naughton Wheel Werks 41 Men Single Speed 36 Mile 1:50:24 19.6
27 1195 Chris Coulston Competitive Gear 44 40-44 Men 36 Mile 1:50:36 19.5
28 1222 Audrius Dauderis Devbridge 36 35-39 Men 36 Mile 1:50:37 19.5
29 1604 Doug McKibbon Wolverine / Acfstores.Com 43 40-44 Men 36 Mile 1:50:38 19.5
30 1909 Joe Thomas Cms Racing Team 32 30-34 Men 36 Mile 1:50:38 19.5
31 1616 David Messing Team Fraser 40 40-44 Men 36 Mile 1:50:41 19.5
32 1703 Jeffrey Payn McG/trails Edge 39 35-39 Men 36 Mile 1:50:41 19.5
33 1475 Ryan Kennedy Einstein 37 35-39 Men 36 Mile 1:50:44 19.5
34 1182 Terry Collins Club Jade Whisper 43 40-44 Men 36 Mile 1:50:45 19.5
35 1896 Dan Szymanski R Bikes 38 35-39 Men 36 Mile 1:50:48 19.5
36 1573 Jarod Makowski Paint Creek Bicycles 40 40-44 Men 36 Mile 1:50:49 19.5
37 1213 David Cushman Spidermonkey Cycling 30 30-34 Men 36 Mile 1:50:51 19.5
38 1336 Chris Goddard Team Fraser 47 45-49 Men 36 Mile 1:51:00 19.5
39 1741 James Rasmussen Rbikes.Com 39 35-39 Men 36 Mile 1:51:10 19.4
40 1693 John Osgood Team Sandbag 37 35-39 Men 36 Mile 1:51:15 19.4
41 1041 Kyle Bainter Overdun Productions 28 20-29 Men 36 Mile 1:51:23 19.4
42 1274 Jacob Ellis Hagerty Cycling 25 20-29 Men 36 Mile 1:51:24 19.4
43 1463 Jeremy Karel Founders Alger Racing 29 20-29 Men 36 Mile 1:51:32 19.4
44 1411 Robert Higgins Johnny Sprockets 41 40-44 Men 36 Mile 1:51:48 19.3
45 1503 Dan Krajcovic Cycletherapy 36 35-39 Men 36 Mile 1:51:51 19.3
46 1426 Mickey Humpula Einstein Racing 26 20-29 Men 36 Mile 1:51:57 19.3
47 1412 Casey Hildebrandt Twin Six / Polska 17 11-19 Men 36 Mile 1:51:58 19.3
48 1521 Steven Ladouceur Spin Zone Racing 23 20-29 Men 36 Mile 1:51:58 19.3
49 1515 Brian Kulak 34 30-34 Men 36 Mile 1:51:58 19.3
50 1386 Federico Hapin Mpmba 46 45-49 MEN 36 MILE 1:52:09 19.3
51 1737 Damian Radock 31 Men Single Speed 36 Mile 1:52:27 19.2
52 1273 Brandon Elliott Iron Cycles 30 30-34 Men 36 Mile 1:52:40 19.2
53 1886 Andrew Storaska Hc Hooligans 27 20-29 Men 36 Mile 1:52:43 19.2
54 1489 Sean Klontz Half Acre Cycling 26 20-29 Men 36 Mile 1:52:44 19.2
55 1824 Joe Seidl Trails Edge Cyclery 32 30-34 Men 36 Mile 1:52:47 19.2
56 1236 Andrew Demey Team Pegasus 26 20-29 Men 36 Mile 1:52:49 19.1
57 1051 Tim Barrons Hagerty Racing 42 40-44 Men 36 Mile 1:52:53 19.1
58 1666 Robert Neidlinger H C Hooligans 29 Fixed Gear 36 Mile 1:53:11 19.1
59 2018 Conor Macfarlane Meat Factory 32 30-34 Men 36 Mile 1:53:22 19.1
60 1513 Joe Kucharski Priority Health Cycling Team 45 Fixed Gear 36 Mile 1:53:23 19.1
61 1359 Jake Grevenstuk 29 20-29 Men 36 Mile 1:53:47 19.0
62 1438 Greg Jenkinson Team Toast 41 40-44 Men 36 Mile 1:53:50 19.0
63 1954 Jon W9 Einstein Racing 34 30-34 Men 36 Mile 1:53:51 19.0
64 1029 Mike Atkins Spin Zone Racing 36 35-39 Men 36 Mile 1:53:55 19.0
65 1832 Christopher Sholl Tuxedo Thunder Cycling 28 20-29 Men 36 Mile 1:53:58 19.0
66 1423 Tom Clark Rbs Cycling 45 45-49 Men 36 Mile 1:54:13 18.9
67 1943 Mike Vanhouten Bissell/abg 50 50-54 Men 36 Mile 1:54:14 18.9
68 1355 Todd Greene Trail's Edge Cyclery 39 35-39 Men 36 Mile 1:54:24 18.9
69 1865 Kevin Spiller 46 45-49 Men 36 Mile 1:54:25 18.9
70 1697 Jamie Parker Team Specialized 39 35-39 Men 36 Mile 1:54:31 18.9
71 1408 Tony Hersberger Cyclefit Sports Club 41 40-44 Men 36 Mile 1:54:32 18.9
72 1242 Aric Dershem Leadout Racing 42 40-44 Men 36 Mile 1:54:33 18.9
73 1670 Craig Newell Cft Cycling Team 42 40-44 Men 36 Mile 1:54:34 18.9
74 1511 Michael Krywanski Priority Health Cycling Team 61 55 & Older Men 36 Mile 1:54:42 18.8
75 1638 Peter Monko Spidermonkey Cycling 32 30-34 Men 36 Mile 1:54:59 18.8
76 1401 Gus Hemingway Beatthetrainindetroit.Com / Highalt 31 30-34 Men 36 Mile 1:54:59 18.8
77 1421 Patrick Hornacek Spin-To-Win 37 35-39 Men 36 Mile 1:55:24 18.7
78 1665 Joshua Neider McG Trails Edge 38 35-39 Men 36 Mile 1:55:25 18.7
79 1540 Dennis Lessard Aberdeen Bike 41 40-44 Men 36 Mile 1:55:25 18.7
80 1204 Robert Crooks 42 40-44 Men 36 Mile 1:55:25 18.7
81 1277 Jonathan Evans Hup United 43 40-44 Men 36 Mile 1:55:26 18.7
82 1874 David Stebbins Priority Health Cycling Team 56 55 & Older Men 36 Mile 1:55:36 18.7
83 1962 Bruce Warthen 51 50-54 Men 36 Mile 1:55:45 18.7
84 1301 Ray Fulkerson Precisionmtb.Com 52 50-54 Men 36 Mile 1:55:47 18.7
85 1096 Scott Bond Speedway Wheelmen 47 45-49 Men 36 Mile 1:55:48 18.7
86 1507 Tim Krone Trikat! 47 45-49 Men 36 Mile 1:55:48 18.7
87 1073 John Beranek 45 45-49 Men 36 Mile 1:55:51 18.6
88 1636 David Mitchell Trikats 41 40-44 Men 36 Mile 1:56:09 18.6
89 1669 Avi Neurohr Chicago Cuttin' Crew 41 Men Single Speed 36 Mile 1:56:27 18.5
90 1435 Jeffrey Jacobi Founders/alger Cyclery 35 Men Single Speed 36 Mile 1:56:31 18.5
91 1931 Ben Van Couvering 29 20-29 Men 36 Mile 1:56:32 18.5
92 1987 Todd Williams 33 30-34 Men 36 Mile 1:56:35 18.5
93 1186 James Conner Freewheeler Racing 42 40-44 Men 36 Mile 1:56:38 18.5
94 1524 Joseph Lampen Cross Country Cycle 36 35-39 Men 36 Mile 1:56:39 18.5
95 1934 Warren Van Middlesworth 26 20-29 Men 36 Mile 1:56:41 18.5
96 1628 Bob Miller Tri-City Cyclist Race Team 37 35-39 Men 36 Mile 1:56:43 18.5
97 1200 Mark Cramer 46 45-49 Men 36 Mile 1:56:58 18.5
98 1614 Todd Meredith Cross Country Cycle 38 35-39 Men 36 Mile 1:57:08 18.4
99 1406 Michael Henry 48 45-49 Men 36 Mile 1:57:15 18.4
100 1290 William Flecher Stark Velo 59 55 & Older Men 36 Mile 1:57:18 18.4
101 1858 Dan Socie Leadout Racing 43 40-44 Men 36 Mile 1:57:20 18.4
102 1566 David Maclean Shoreline Cycling Club 52 50-54 Men 36 Mile 1:57:20 18.4
103 1519 Bryan Kuyper Leadout Racing 25 Men Single Speed 36 Mile 1:57:24 18.4
104 1506 Don Kring Club Leadout 25 20-29 Men 36 Mile 1:57:25 18.4
105 1794 Brandon Scheiner Team Pegasus 30 30-34 Men 36 Mile 1:57:26 18.4
106 1099 Luke Boote 25 20-29 Men 36 Mile 1:57:27 18.4
107 1574 David Manges Team Assenmacher 40 40-44 Men 36 Mile 1:57:31 18.4
108 1230 Wendell Delvalle Racing Greyhounds 36 35-39 Men 36 Mile 1:57:31 18.4
109 1118 Edward Brewer Hellriders Mtbc 38 35-39 Men 36 Mile 1:57:33 18.4
110 1859 Michael Sommer R-Bikes.Com Race Team 37 35-39 Men 36 Mile 1:57:33 18.4
111 1223 Tim Daum 50 50-54 Men 36 Mile 1:57:33 18.4
112 1917 Eric Tompkin Tree Fort Bikes 44 Fat Bike 36 Mile 1:57:35 18.4
113 1996 Steve Wojton Freewheeler Racing 44 40-44 Men 36 Mile 1:57:40 18.4
114 1131 David Bucholtz Einstein Racing 44 40-44 Men 36 Mile 1:57:44 18.3
115 1369 Andrew Haala Tuxedo Thunder 26 Men Single Speed 36 Mile 1:57:45 18.3
116 1581 Jacob Marshall Team Freewheeler Bike Shop 26 Men Single Speed 36 Mile 1:57:46 18.3
117 1298 Wes Sovis Hagerty-Tolaw U-25 25 20-29 Men 36 Mile 1:57:49 18.3
118 1973 Shaun Welch Paint Creek Bicycles 34 30-34 Men 36 Mile 1:57:50 18.3
119 1159 Brian Cermak R4ac 25 20-29 Men 36 Mile 1:58:11 18.3
120 1838 Kevin Daum Tri-City Cyclists 28 20-29 Men 36 Mile 1:58:13 18.3
121 1310 Cheyenne Smith Twisted Stone/latitude 45 28 20-29 Men 36 Mile 1:58:18 18.3
122 1190 Wayne Cook Specialized/team Fraser 42 Men Single Speed 36 Mile 1:58:25 18.2
123 1810 Benjamin Schreiber Team Fond Du Lac Cyclery 30 30-34 Men 36 Mile 1:58:28 18.2
124 1254 Ben Doctor Rapid Wheelmen 43 Men Single Speed 36 Mile 1:58:33 18.2
125 1932 Ron Van Diepen 49 45-49 Men 36 Mile 1:58:38 18.2
126 1535 Kim Lee Rapid Wheelmen 50 50-54 Men 36 Mile 1:58:40 18.2
127 1181 David Coar Men Of Steel Racing 56 55 & Older Men 36 Mile 1:58:40 18.2
128 1062 Brad Beeson Spin Bike Shop 48 45-49 Men 36 Mile 1:58:42 18.2
129 1691 Lucas Oostindie 29 20-29 Men 36 Mile 1:58:44 18.2
130 1748 Matt Remus Team Jtree 35 35-39 Men 36 Mile 1:58:54 18.2
131 1978 Adam Wheeler Precisionmtb.Com 35 35-39 Men 36 Mile 1:58:57 18.2
132 1269 David Echelbarger Tnr 45 45-49 Men 36 Mile 1:59:01 18.1
133 2020 John Kitteridge 45-49 Men 36 Mile 1:59:04 18.1
134 1846 Trevor Smela No Boundries 32 Men Single Speed 36 Mile 1:59:10 18.1
135 1563 Christopher Macfarland Xxx Racing - Athletico 41 40-44 Men 36 Mile 1:59:15 18.1
136 1598 Casey McGovern Bissell/abg 42 40-44 Men 36 Mile 1:59:16 18.1
137 1390 Jeff Hartz Racing For Riley 43 40-44 Men 36 Mile 1:59:16 18.1
138 1734 Mark Pruim Cross Country Cycle 39 35-39 Men 36 Mile 1:59:16 18.1
139 1929 John Van Alsburg Team Rjr / Hometown 43 40-44 Men 36 Mile 1:59:18 18.1
140 1392 Brian Harville Flying Rhino Cycling Club 42 40-44 Men 36 Mile 1:59:19 18.1
141 1199 Jeffrey Craft Lake Effect Racing 55 55 & Older Men 36 Mile 1:59:24 18.1
142 1243 Marie Dershem Team Priority Health 40 40 & Older Women 36 Mile 1:59:27 18.1
143 1081 Mike Birmann Priority Health Cycling Team 50 50-54 Men 36 Mile 1:59:27 18.1
144 1422 Cricket Howard Team Priority Health 40 40-44 Men 36 Mile 1:59:29 18.1
145 1019 John Ammond Einstein Racing 42 40-44 Men 36 Mile 1:59:30 18.1
146 1975 Bernard Wendel Cannondale Midwest Racing 44 40-44 Men 36 Mile 1:59:30 18.1
147 1640 David Moore Cycletherapy-Specialized Racing 38 35-39 Men 36 Mile 1:59:30 18.1
148 1881 Matthew Stokwisz Tower Racing 27 20-29 Men 36 Mile 1:59:33 18.1
149 1967 Harrison Webb Speed Merchants Bike Shop 18 11-19 Men 36 Mile 1:59:34 18.1
150 1526 John Lancione Spin Zone Racing P/b Bike-The-Bend 31 30-34 Men 36 Mile 1:59:36 18.1
151 1565 Brad Mackenzie R4ac Cycling Project 27 20-29 Men 36 Mile 1:59:36 18.1
152 1993 Greg Witt Rbs Mtb Team 44 40-44 Men 36 Mile 1:59:38 18.1
153 1094 John Boggs Xxx Racing - Athletico 34 30-34 Men 36 Mile 1:59:44 18.0
154 1205 Shawn Crowley Founders Alger Racing 33 30-34 Men 36 Mile 1:59:45 18.0
155 1038 Mike Palmer Half Acre 28 20-29 Men 36 Mile 1:59:46 18.0
156 1360 Aaron Grifith 31 30-34 Men 36 Mile 2:00:05 18.0
157 1108 Jim Braam 31 30-34 Men 36 Mile 2:00:05 18.0
158 1015 Robin Allen 59 55 & Older Men 36 Mile 2:00:05 18.0
159 1899 Daniel Tell 24 20-29 Men 36 Mile 2:00:06 18.0
160 1101 Rick Borns West Michigan Coast Riders 45 45-49 Men 36 Mile 2:00:08 18.0
161 1279 Tim Faas Wolverine Ac&f Stores 49 45-49 Men 36 Mile 2:00:13 18.0
162 1212 Kevin Cusack Team Rwanda 55 55 & Older Men 36 Mile 2:00:13 18.0
163 1229 Brad Dejonge Tnr 51 50-54 Men 36 Mile 2:00:15 18.0
164 1003 Matt Acker 26 Men Single Speed 36 Mile 2:00:27 17.9
165 1286 Kurt Feller 41 40-44 Men 36 Mile 2:00:35 17.9
166 1305 Christopher Gabrielson Moosejaw Pizza And Brewery 39 35-39 Men 36 Mile 2:00:39 17.9
167 1291 Ken Flory 43 40-44 Men 36 Mile 2:00:39 17.9
168 1749 Eric Rennie Snotalot 54 50-54 Men 36 Mile 2:00:50 17.9
169 1876 Todd Steiner 47 45-49 Men 36 Mile 2:00:51 17.9
170 1840 Scott Sikkema 46 45-49 Men 36 Mile 2:00:51 17.9
171 1452 Mark Judd House Of Wheels 47 45-49 Men 36 Mile 2:00:52 17.9
172 1046 Vaidas Barcys Devbridge 36 35-39 Men 36 Mile 2:00:53 17.9
173 1047 Chad Kuhn Racing For Riley/p/b Alderfer Berge 39 35-39 Men 36 Mile 2:00:55 17.9
174 1368 Steve Haakenson 43 40-44 Men 36 Mile 2:00:55 17.9
175 1121 Lauri Brockmiller Hagerty Cycling 37 30-39 Women 36 Mile 2:00:55 17.9
176 1432 David Ide Priority Health Masters Team 60 Men Single Speed 36 Mile 2:00:57 17.9
177 1086 Steven Blake Roll Models Bike Shop 26 Men Single Speed 36 Mile 2:01:01 17.8
178 1192 Ryan Cooper 34 30-34 Men 36 Mile 2:01:05 17.8
179 1342 Alex Gonzalez Team Sandbag 34 30-34 Men 36 Mile 2:01:06 17.8
180 1788 Andrew Santos Tuxedo Thunder 29 20-29 Men 36 Mile 2:01:13 17.8
181 1814 Steve Schultz Latitude 45/twisted Stone 33 30-34 Men 36 Mile 2:01:17 17.8
182 1560 Mostyn Lumbard 36 35-39 Men 36 Mile 2:01:20 17.8
183 1663 Paul Nederveld Fusion / Livestrong 35 35-39 Men 36 Mile 2:01:20 17.8
184 1194 Jason Cotter Paint Creek Bicyles 38 35-39 Men 36 Mile 2:01:23 17.8
185 1732 Curtis Prohaska Club Fraser 31 30-34 Men 36 Mile 2:01:23 17.8
186 1264 Jeff Zeller Quiring Cycles 42 40-44 Men 36 Mile 2:01:24 17.8
187 1590 Nate Maxson Darkhorse Racing 33 30-34 Men 36 Mile 2:01:25 17.8
188 1124 Michael Brower Freeewheeler Bike Shop 40 Men Single Speed 36 Mile 2:01:26 17.8
189 1293 Frank Foley 46 45-49 Men 36 Mile 2:01:30 17.8
190 1765 Scott Roerig Envision Engineering 51 50-54 Men 36 Mile 2:01:31 17.8
191 1908 Bill Thomas 32 30-34 Men 36 Mile 2:01:33 17.8
192 1784 Javier Samayoa Wheels In Motion Racing 33 30-34 Men 36 Mile 2:01:34 17.8
193 2000 Cody Sovis Hagerty-Tolaw U-25 24 20-29 Men 36 Mile 2:01:38 17.8
194 1953 Kurt Vogt Rbs Cycling 16 11-19 Men 36 Mile 2:01:41 17.8
195 1612 Jason Melecosky Rbs Cycling Team 38 35-39 Men 36 Mile 2:01:59 17.7
196 1791 Ralf Scharnowski Founders Alger Racing 44 40-44 Men 36 Mile 2:02:00 17.7
197 1843 Jarett Simon Cross Country Cycle 36 35-39 Men 36 Mile 2:02:05 17.7
198 1869 Kevin Stacey Cross Country Cycle 42 40-44 Men 36 Mile 2:02:15 17.7
199 1850 Evan Smith 32 30-34 Men 36 Mile 2:02:23 17.6
200 1092 Don Boersma Fusion It 45 45-49 Men 36 Mile 2:02:23 17.6
201 1405 Alan Henry 46 45-49 Men 36 Mile 2:02:23 17.6
202 1689 Ryan Olthouse Hell Yes/velocity 33 Men Single Speed 36 Mile 2:02:36 17.6
203 1485 Aaron Kitscher Derailed/north Country Cycle Sport 37 Men Single Speed 36 Mile 2:02:37 17.6
204 1102 Charles Bossart Darkhorse 28 20-29 Men 36 Mile 2:02:37 17.6
205 1068 David Bennefield Jr. Hc Hooligans 31 30-34 Men 36 Mile 2:02:38 17.6
206 1685 Derrick Obrien Team Active Racing 25 20-29 Men 36 Mile 2:02:38 17.6
207 2003 Kevin Wright No Boundaries 41 40-44 Men 36 Mile 2:02:39 17.6
208 1600 Todd McInally Cycletherapy 29 20-29 Men 36 Mile 2:02:39 17.6
209 2002 Chase Wreyford Tuxedo Thunder / West Town Bikes 27 20-29 Men 36 Mile 2:02:39 17.6
210 1462 Paul Kardosh Mox Multisport 33 30-34 Men 36 Mile 2:02:40 17.6
211 1686 Steven Ohlhaber Northbrook Garner Bicycle Club 40 40-44 Men 36 Mile 2:02:45 17.6
212 1130 Justin Bruursema Chervon North America 35 35-39 Men 36 Mile 2:02:45 17.6
213 1396 Erich Havey 37 35-39 Men 36 Mile 2:02:46 17.6
214 1417 Joshua Hogeterp Founders Alger Racing 33 30-34 Men 36 Mile 2:02:47 17.6
215 1808 William Schouman Specialized 42 40-44 Men 36 Mile 2:02:50 17.6
216 1790 Dan Schaefer Team Fond Du Lac Cyclery 29 20-29 Men 36 Mile 2:02:50 17.6
217 1048 Terrance Barnes 40 40-44 Men 36 Mile 2:02:57 17.6
218 1234 Nick Demek 30 30-34 Men 36 Mile 2:02:58 17.6
219 1394 Frederick Hatfield Greater Than 38 35-39 Men 36 Mile 2:03:20 17.5
220 1823 Michael Seaman Specialized 47 Men Single Speed 36 Mile 2:03:23 17.5
221 1538 Marshall Leininger Stark Velo 54 50-54 Men 36 Mile 2:03:24 17.5
222 1380 Adam Hallett Hc Hooligans 28 20-29 Men 36 Mile 2:03:26 17.5
223 1440 Dennis Jensen 44 40-44 Men 36 Mile 2:03:28 17.5
224 1806 Jamal Schott McC 44 40-44 Men 36 Mile 2:03:28 17.5
225 1939 Matt Vander Sys West Coast Riders 47 45-49 Men 36 Mile 2:03:34 17.5
226 1444 Eric Johnson 42 40-44 Men 36 Mile 2:03:34 17.5
227 1966 Adam Webb 31 30-34 Men 36 Mile 2:03:44 17.5
228 1692 Keith Ortiz Half Acre Cycling 34 Men Single Speed 36 Mile 2:03:50 17.4
229 1441 Brad Jerris 42 Men Single Speed 36 Mile 2:03:53 17.4
230 1911 David Thornton Team Competitive Gear 48 45-49 Men 36 Mile 2:03:55 17.4
231 1725 Pete Post Cms Racing 45 45-49 Men 36 Mile 2:04:01 17.4
232 1719 James Plichta 45 45-49 Men 36 Mile 2:04:02 17.4
233 1330 Ryan Gingerich 33 30-34 Men 36 Mile 2:04:07 17.4
234 1008 Craig Akers Hc Hooligans 29 Men Single Speed 36 Mile 2:04:07 17.4
235 1589 Jason Mau 33 30-34 Men 36 Mile 2:04:11 17.4
236 1232 Dave Demaegd Spin Zone Racing 39 Men Single Speed 36 Mile 2:04:15 17.4
237 1601 Paul-Brian McInerney Half Acre Cycling 41 40-44 Men 36 Mile 2:04:16 17.4
238 1933 Jane Van Hof Real Women Tri 36 30-39 Women 36 Mile 2:04:19 17.4
239 1415 Matt Hoffman Positive Cycling.Com Pb Grbc 39 35-39 Men 36 Mile 2:04:27 17.4
240 1082 Mark Bissell Bissell 54 50-54 Men 36 Mile 2:04:31 17.3
241 1500 Mike Kozlowski 36 35-39 Men 36 Mile 2:04:31 17.3
242 1626 Anthony Mikrut Kinky Llama Racing 37 35-39 Men 36 Mile 2:04:32 17.3
243 1469 Nathan Kearns Treefortbikes.Com 39 Fixed Gear 36 Mile 2:04:36 17.3
244 1366 Mark Gutzke 2cc 55 55 & Older Men 36 Mile 2:04:45 17.3
245 1428 Aaron Huntington Speed Merchants 46 45-49 Men 36 Mile 2:04:51 17.3
246 1872 James Stanski 52 50-54 Men 36 Mile 2:04:54 17.3
247 1049 Patrick Barrett Algoma Bicycle Company 47 Men Single Speed 36 Mile 2:05:11 17.3
248 1935 Craig Van Renterghem Team Rack 44 Men Single Speed 36 Mile 2:05:11 17.3
249 1488 John Kline Singletrack Outfitters 37 35-39 Men 36 Mile 2:05:17 17.2
250 1372 Talbot Hack 49 45-49 Men 36 Mile 2:05:20 17.2
251 1522 Greg Lambrecht Team Roll Models 45 45-49 Men 36 Mile 2:05:22 17.2
252 1454 Dj Jurvelin Cyclefit 54 50-54 Men 36 Mile 2:05:22 17.2
253 1827 Ryan Severns 28 20-29 Men 36 Mile 2:05:27 17.2
254 1807 Austin Schouman West Michgan Coast Riders 15 11-19 Men 36 Mile 2:05:28 17.2
255 1400 Tim Hejny 34 30-34 Men 36 Mile 2:05:30 17.2
256 1882 Matthew Stolz Foolish 30 30-34 Men 36 Mile 2:05:31 17.2
257 1315 Brendan Gecik 35 35-39 Men 36 Mile 2:05:34 17.2
258 1024 Ron Anderson North Country Cycle Sport 55 55 & Older Men 36 Mile 2:05:35 17.2
259 1969 Steve Weckle Tri City Cyclists 49 45-49 Men 36 Mile 2:05:39 17.2
260 1678 Craig North Aavc 56 55 & Older Men 36 Mile 2:05:40 17.2
261 1103 Lee Boughner Rapid Wheelmen 54 50-54 Men 36 Mile 2:05:41 17.2
262 1216 Alan E Dahl West Michigan Coast Riders 47 45-49 Men 36 Mile 2:05:42 17.2
263 1069 Brad Bennett 55 55 & Older Men 36 Mile 2:05:42 17.2
264 1618 Charley Meyer Xxx Racing-Athletico 28 20-29 Men 36 Mile 2:05:45 17.2
265 1856 Charles Snyder Trails Edge 43 Men Single Speed 36 Mile 2:05:54 17.2
266 1076 Mike Bernhard 34 Men Single Speed 36 Mile 2:05:56 17.2
267 1756 Mike Riffe Team Fraser 43 40-44 Men 36 Mile 2:05:56 17.2
268 1656 Danielle Musto Salsa/twin Six 34 Fat Bike 36 Mile 2:05:56 17.2
269 1316 David George Rapid Wheelmen 36 35-39 Men 36 Mile 2:05:57 17.1
270 1907 Craig Theodore Mid Pack Racing 40 40-44 Men 36 Mile 2:05:57 17.1
271 1235 Steven Demers Team Giant 45 45-49 Men 36 Mile 2:06:10 17.1
272 1363 Chuck Grzanka Priority Health Cycling Team 60 55 & Older Men 36 Mile 2:06:10 17.1
273 1682 Jp Nugent 47 45-49 Men 36 Mile 2:06:10 17.1
274 2007 James Mf'n Ye Tuxedo Thunder Cycling 30 30-34 Men 36 Mile 2:06:10 17.1
275 1957 Bryan Waldman Stomach Of Anger 46 45-49 Men 36 Mile 2:06:11 17.1
276 1381 Steven Halstead Capitol Fund Title Cycling 53 50-54 Men 36 Mile 2:06:11 17.1
277 1635 Jason Mishka 32 30-34 Men 36 Mile 2:06:14 17.1
278 1148 David Capretto Mox Multisport 29 20-29 Men 36 Mile 2:06:14 17.1
279 1114 Hayes Sanborn Spidermonkey Cycling 36 35-39 Men 36 Mile 2:06:37 17.1
280 1904 Trevor Terry 37 35-39 Men 36 Mile 2:06:39 17.1
281 1547 Ronald Loeffler 46 45-49 Men 36 Mile 2:06:40 17.1
282 1773 Adriano Rosa 48 45-49 Men 36 Mile 2:06:40 17.1
283 1913 David Tietz 49 Men Single Speed 36 Mile 2:06:43 17.0
284 1694 Jeremy Ostrowski A51 32 30-34 Men 36 Mile 2:06:46 17.0
285 1705 Cameron Pease North Branch Cycling 35 35-39 Men 36 Mile 2:06:48 17.0
286 1887 Chelsea Strate Behind-Bars/lgr 27 11-29 Women 36 Mile 2:06:49 17.0
287 1991 Andrew Wisniewski Stomach Of Anger 36 35-39 Men 36 Mile 2:06:49 17.0
288 1341 Dylan Gonda Cms Racing Team 16 11-19 Men 36 Mile 2:06:52 17.0
289 1906 Scott Thenikl Founders Alger Racing 35-39 Men 36 Mile 2:06:52 17.0
290 1266 Troy Turley Alderfer Bergen 44 40-44 Men 36 Mile 2:06:57 17.0
291 1337 Jim Goerlich III Team Sandbag/ Macomb Bike And Fitne 31 30-34 Men 36 Mile 2:06:59 17.0
292 1453 Hans Juntunen Trikats 27 20-29 Men 36 Mile 2:07:01 17.0
293 1127 Steve Brown Priority Health 54 50-54 Men 36 Mile 2:07:01 17.0
294 1350 Rob Grainger Team Taylor 48 45-49 Men 36 Mile 2:07:04 17.0
295 1834 Kate Shortall 35 30-39 Women 36 Mile 2:07:04 17.0
296 1331 Kevin Glaser 46 45-49 Men 36 Mile 2:07:04 17.0
297 1960 Mark Warner Cft/playmakers 54 50-54 Men 36 Mile 2:07:09 17.0
298 1059 Brandt Becker Team Troll 27 20-29 Men 36 Mile 2:07:13 17.0
299 2008 Nick Yetter Team Taylor 44 40-44 Men 36 Mile 2:07:18 17.0
300 1994 Konrad Witt Abd 16 11-19 Men 36 Mile 2:07:19 17.0
301 1883 Tom Stolz Founders Alger Racing 36 Men Single Speed 36 Mile 2:07:24 17.0
302 1090 Christopher Bloch Bissell Abg 54 50-54 Men 36 Mile 2:07:29 16.9
303 2022 Conrad Vanhaitsma 47 45-49 Men 36 Mile 2:07:30 16.9
304 1241 James Depree 44 40-44 Men 36 Mile 2:07:31 16.9
305 1239 James Depkon Northbrook Team Garner 39 35-39 Men 36 Mile 2:07:36 16.9
306 1307 Brian Gaiser 42 40-44 Men 36 Mile 2:07:36 16.9
307 1308 Jamie Galambos Mishka 33 30-39 Women 36 Mile 2:07:38 16.9
308 1026 Craig Anible 35 35-39 Men 36 Mile 2:07:39 16.9
309 1122 Eric Broekhuis Rapid Wheelmen 48 45-49 Men 36 Mile 2:07:48 16.9
310 1445 Mark Johnson Trikats 52 50-54 Men 36 Mile 2:07:49 16.9
311 1718 Tom Pilutti 52 50-54 Men 36 Mile 2:07:50 16.9
312 1276 David Estefan Fusion/livestrong Foundation 38 35-39 Men 36 Mile 2:07:51 16.9
313 1379 Pete Hall Tnr Racing 26 20-29 Men 36 Mile 2:07:56 16.9
314 1436 Tara Jansen Farm Team Racing 30 Fat Bike 36 Mile 2:08:00 16.9
315 1418 Dave Hollis Team Assenmacher 51 50-54 Men 36 Mile 2:08:00 16.9
316 1202 Joshua Arends Ncc/axletree 31 30-34 Men 36 Mile 2:08:01 16.9
317 2024 Eric Kimber Fusion Cycling Team 43 40-44 Men 36 Mile 2:08:06 16.9
318 1425 Jason Huls Cql 38 35-39 Men 36 Mile 2:08:07 16.9
319 1385 Kristi Hanson Spidermonkey Cycling 33 30-39 Women 36 Mile 2:08:07 16.9
320 1329 Todd Gilliland 49 45-49 Men 36 Mile 2:08:08 16.9
321 1013 David Allan Chervon North America 37 35-39 Men 36 Mile 2:08:08 16.9
322 1351 Matt Graves Bissel 61 Men Single Speed 36 Mile 2:08:10 16.9
323 1582 Jon Marshall Mid-Pack Racing 41 40-44 Men 36 Mile 2:08:12 16.8
324 1275 Karl Emmerich Racing Greyhounds 39 35-39 Men 36 Mile 2:08:12 16.8
325 1146 Michael Campbell Iron Cycles 37 35-39 Men 36 Mile 2:08:12 16.8
326 1189 Tim Cook 34 30-34 Men 36 Mile 2:08:17 16.8
327 1332 Ryan Bolin Hell Yes 29 20-29 Men 36 Mile 2:08:19 16.8
328 1820 Joshua Scott Team Redundancy Team 28 20-29 Men 36 Mile 2:08:25 16.8
329 1456 John Kahler Team Greater Than 46 45-49 Men 36 Mile 2:08:27 16.8
330 1135 David Buick Team Taylor 28 20-29 Men 36 Mile 2:08:29 16.8
331 1280 Michael Faehnle Maumee Valley Wheelman 57 55 & Older Men 36 Mile 2:08:34 16.8
332 1457 Lawrence Kaiser 52 50-54 Men 36 Mile 2:08:36 16.8
333 1374 Jon Haines Macomb Bike And Fitness 41 40-44 Men 36 Mile 2:08:38 16.8
334 1559 Kim Luks Cycletherapy 41 40 & Older Women 36 Mile 2:08:39 16.8
335 1668 Kevin Neumann 28 20-29 Men 36 Mile 2:08:45 16.8
336 1150 Leith Carey 33 30-34 Men 36 Mile 2:08:46 16.8
337 1137 Marshall Bull Racing Greyhounds 30 30-34 Men 36 Mile 2:08:48 16.8
338 1937 Barry Van Volkinburg Farm Team Racing 30 Fat Bike 36 Mile 2:08:57 16.8
339 1323 Derek Gibbs McG Racing P/b Trails-Edge 36 35-39 Men 36 Mile 2:08:58 16.7
340 1736 Jeff Rabine United States 27 20-29 Men 36 Mile 2:09:00 16.7
341 1747 Matt Reimink 29 20-29 Men 36 Mile 2:09:02 16.7
342 1097 Justin Bone Racing Greyhounds 27 20-29 Men 36 Mile 2:09:03 16.7
343 1707 Christina Peck Chicago Cuttin Crew 25 11-29 Women 36 Mile 2:09:04 16.7
344 1599 Michael McGraw 35 Men Single Speed 36 Mile 2:09:08 16.7
345 1439 Neil Jenney Team Active Racing 39 35-39 Men 36 Mile 2:09:10 16.7
346 1253 Craig Dittmer Racing Greyhounds 39 35-39 Men 36 Mile 2:09:11 16.7
347 1729 Eric Hune Team Apex Multisport 35 30-34 Men 36 Mile 2:09:11 16.7
348 1070 Jason Bennett 32 30-34 Men 36 Mile 2:09:12 16.7
349 1433 Roger Inman 43 40-44 Men 36 Mile 2:09:13 16.7
350 1140 Steve Butler Team Jtree 42 40-44 Men 36 Mile 2:09:18 16.7
351 1167 Eric Holm Half Acre Cycling 25 20-29 Men 36 Mile 2:09:24 16.7
352 1884 Joe Stoner Billy's Bike Shop 42 40-44 Men 36 Mile 2:09:25 16.7
353 1776 Mark Rushbrook 44 40-44 Men 36 Mile 2:09:29 16.7
354 1972 Rebecca Welbes Kinky Llama Racing 26 11-29 Women 36 Mile 2:09:32 16.7
355 1147 Kim Canales Mom & Pop Racing/sweet Bikes 43 40-44 Men 36 Mile 2:09:35 16.7
356 1621 Brett Michael Team Pegasus 26 20-29 Men 36 Mile 2:09:39 16.7
357 1321 Julius Geronimo Mpmba 43 40-44 Men 36 Mile 2:09:47 16.6
358 1990 Gary Winkel Racing Greyhounds 55 55 & Older Men 36 Mile 2:09:51 16.6
359 1203 Tom Crimp Auxiliary Racing 45 Men Single Speed 36 Mile 2:09:51 16.6
360 1530 Robert Larson Befit Racing Team 60 Men Single Speed 36 Mile 2:09:54 16.6
361 1494 Jeff Kompa Spin 53 50-54 Men 36 Mile 2:09:57 16.6
362 1420 David Homann None 44 40-44 Men 36 Mile 2:10:08 16.6
363 1986 Todd Williams Main Street Bicycles 28 20-29 Men 36 Mile 2:10:09 16.6
364 1021 Bruce Anderson Racing Greyhounds 34 30-34 Men 36 Mile 2:10:12 16.6
365 1458 Tak Kakiuchi Trails Edge 31 30-34 Men 36 Mile 2:10:16 16.6
366 1615 Ben Merritt Leadout 33 30-34 Men 36 Mile 2:10:18 16.6
367 1116 Joseph Brennan Big Pants Racing 50 Men Single Speed 36 Mile 2:10:20 16.6
368 1484 Pete Kistulinec Little Belgium Bike Gang 37 35-39 Men 36 Mile 2:10:23 16.6
369 1860 Dean Sontag Cefour 54 50-54 Men 36 Mile 2:10:27 16.6
370 1075 Gary Berk 54 50-54 Men 36 Mile 2:10:30 16.6
371 1174 Benjamin Clark 35 35-39 Men 36 Mile 2:10:32 16.5
372 1580 Lisa Markley Roll Models Bike Shop 49 40 & Older Women 36 Mile 2:10:33 16.5
373 1948 Bill Vermeersch Little Belgium Bike Gang 47 45-49 Men 36 Mile 2:10:33 16.5
374 1064 Cameron Bell Clarkson Cycle 40 40-44 Men 36 Mile 2:10:33 16.5
375 1157 Larry Cavalloro 43 40-44 Men 36 Mile 2:10:34 16.5
376 1786 Sandra Samman Xxx-Racing Athletico 37 30-39 Women 36 Mile 2:10:34 16.5
377 1902 Jeffrey Tenniswood Wolverine Sports Club 43 Men Single Speed 36 Mile 2:10:35 16.5
378 1449 Jerry Jones 48 45-49 Men 36 Mile 2:10:37 16.5
379 1288 Jeff Festian Rapid Wheelmen 38 35-39 Men 36 Mile 2:10:37 16.5
380 1845 Cecil Slayton 44 40-44 Men 36 Mile 2:10:41 16.5
381 1065 Raymond Bell 52 50-54 Men 36 Mile 2:10:45 16.5
382 1539 Micah Lemasters Trail House 30 Men Single Speed 36 Mile 2:10:48 16.5
383 1514 John Kuiper 36 35-39 Men 36 Mile 2:10:48 16.5
384 1314 Sean Geary Wheels In Motion 37 35-39 Men 36 Mile 2:10:52 16.5
385 1328 Brian Gillies Aberdeen Bike & Outdoors / Runjohnr 46 Fat Bike 36 Mile 2:11:01 16.5
386 1901 Marnie Tencate Founders Alger Racing 45 40 & Older Women 36 Mile 2:11:03 16.5
387 1774 Joseph Rozengnal Cal Cycling 50 50-54 Men 36 Mile 2:11:07 16.5
388 1010 Joshua Alexandre Haines Tuxedo Thunder 32 30-34 Men 36 Mile 2:11:07 16.5
389 1799 Robert Schmantowsky 49 45-49 Men 36 Mile 2:11:09 16.5
390 1854 Tyson Smith Team Foolish 34 30-34 Men 36 Mile 2:11:11 16.5
391 1625 Rick Mikkelson Team Barn Beam 50 50-54 Men 36 Mile 2:11:20 16.4
392 1610 Rob Meendering 33 Men Single Speed 36 Mile 2:11:47 16.4
393 1388 Bob Harms 49 45-49 Men 36 Mile 2:11:48 16.4
394 1735 Rob Pulcipher Aavc Two Wheel Tango 55 55 & Older Men 36 Mile 2:11:49 16.4
395 1033 Steven Baars 54 50-54 Men 36 Mile 2:11:52 16.4
396 1005 Ted Agnew Team Toast 41 40-44 Men 36 Mile 2:11:54 16.4
397 1632 Shawn Minard Team Specialized 40 40-44 Men 36 Mile 2:11:55 16.4
398 1398 Craig Hays Cross Country Cycle 48 45-49 Men 36 Mile 2:12:03 16.4
399 1508 Erik Krueger Racing Greyhounds 25 Fixed Gear 36 Mile 2:12:21 16.3
400 1339 Dave Goff 33 30-34 Men 36 Mile 2:12:25 16.3
401 1179 Chris Clinton Trek/bontrager 41 40-44 Men 36 Mile 2:12:27 16.3
402 1032 Kacha Azema Stomachofanger 37 35-39 Men 36 Mile 2:12:29 16.3
403 1459 Marilyn Kamp 49 40 & Older Women 36 Mile 2:12:29 16.3
404 1144 John Camfferman 29 20-29 Men 36 Mile 2:12:30 16.3
405 1115 Bill Brennan Bissell 53 50-54 Men 36 Mile 2:12:31 16.3
406 1763 Lloyd Robinson Rapid Wheelmen 23 20-29 Men 36 Mile 2:12:33 16.3
407 1042 Douglas Baker 48 45-49 Men 36 Mile 2:12:34 16.3
408 1695 Robert Paetsch Garner Northbrook Bicycle Club 40 40-44 Men 36 Mile 2:12:40 16.3
409 1267 Brad Dunkin Team Sandbag 34 30-34 Men 36 Mile 2:12:41 16.3
410 1941 Rick Vanderleek 38 35-39 Men 36 Mile 2:12:43 16.3
411 1482 Jon King Rbs Cycling 40 40-44 Men 36 Mile 2:12:48 16.3
412 1752 Sarah Rice 38 30-39 Women 36 Mile 2:12:48 16.3
413 1510 Reid Kruszewski-Arnott 29 20-29 Men 36 Mile 2:12:55 16.3
414 1955 Martin Waalkes Waalkes Sports 49 45-49 Men 36 Mile 2:12:59 16.2
415 1246 Darrell Deward 36 35-39 Men 36 Mile 2:12:59 16.2
416 1977 Mark Weston Team Jtree 44 40-44 Men 36 Mile 2:13:01 16.2
417 1197 Larry Crabbe Miller Energy Group / Grand Rapids 40 40-44 Men 36 Mile 2:13:02 16.2
418 1922 Jason Trock Mox Multisport 39 35-39 Men 36 Mile 2:13:04 16.2
419 1782 Ripper Rzepecki Competittve Gear 41 40-44 Men 36 Mile 2:13:04 16.2
420 1467 David Kasdan Oakland University 38 Fixed Gear 36 Mile 2:13:25 16.2
421 1772 Jason Roon Cabbage Bros. Bikes 43 Men Single Speed 36 Mile 2:13:36 16.2
422 1164 Gary Chastain Einstein Racing 55 55 & Older Men 36 Mile 2:13:42 16.2
423 1844 Loren Simons Priority Health Cycling Team 64 55 & Older Men 36 Mile 2:13:43 16.2
424 2019 Gerry Naski Wolverine Sports Club 50-54 Men 36 Mile 2:13:47 16.1
425 1520 Brian Kwekel 40 Men Single Speed 36 Mile 2:13:57 16.1
426 1946 Gary Veldhof 37 35-39 Men 36 Mile 2:14:01 16.1
427 1710 Jimmy Petersen Michigan Pinoy Mountain Bikers Asso 45 45-49 Men 36 Mile 2:14:04 16.1
428 1354 Brad Greenburg 45 45-49 Men 36 Mile 2:14:08 16.1
429 1237 Steve Demidovich Velorution 35 Men Single Speed 36 Mile 2:14:13 16.1
430 1952 Eric Vogt Rbs Cycling 56 55 & Older Men 36 Mile 2:14:15 16.1
431 1413 Bill Hill Team Rbs 34 Men Single Speed 36 Mile 2:14:20 16.1
432 1154 Kattie Carpenter-Rosa Team Striders 30 30-39 Women 36 Mile 2:14:25 16.1
433 1868 Brad Spooner Velo City Cycles 39 35-39 Men 36 Mile 2:14:30 16.1
434 1260 Jeff Zimmerman Lonesome Mountain Outfitters 31 30-34 Men 36 Mile 2:14:40 16.0
435 1052 Aaron Barto Cannondale Midwest Racing 39 35-39 Men 36 Mile 2:14:43 16.0
436 1905 Nick Teunessen Trophy Head Racing 37 35-39 Men 36 Mile 2:14:44 16.0
437 2004 Mark Wright Jones Farms/constantine, Mi 50 50-54 Men 36 Mile 2:14:48 16.0
438 1645 Rob Motta 51 50-54 Men 36 Mile 2:14:51 16.0
439 1848 Bryan Smith Rbs Cycling Team 53 50-54 Men 36 Mile 2:14:53 16.0
440 1058 Michael Beaudoin 55 55 & Older Men 36 Mile 2:15:04 16.0
441 1430 Alex Huyghe Team O2/ Cadieux Bc 24 20-29 Men 36 Mile 2:15:04 16.0
442 1577 Nolan Marcus Leadout Racing 31 30-34 Men 36 Mile 2:15:06 16.0
443 1567 Michael Maher Club Leadout 25 20-29 Men 36 Mile 2:15:06 16.0
444 1812 Ronald Schuitema Myassisfat Cycles 51 50-54 Men 36 Mile 2:15:13 16.0
445 1891 Evan Sutton Racing Greyhounds 31 30-34 Men 36 Mile 2:15:13 16.0
446 1759 Todd Rillema Freewheeler Bike Shop 45 45-49 Men 36 Mile 2:15:22 16.0
447 1034 Matthew Babbitt Trikats 26 20-29 Men 36 Mile 2:15:28 15.9
448 1919 Monica Tory Velo Bella/fusion It 39 30-39 Women 36 Mile 2:15:31 15.9
449 1988 Craig Willian 35 35-39 Men 36 Mile 2:15:39 15.9
450 1769 Brian Roginski Racing Greyhounds 36 35-39 Men 36 Mile 2:15:41 15.9
451 1870 Ernie Stafford Founders Alger Racing 44 40-44 Men 36 Mile 2:15:44 15.9
452 1916 Katie Tomarelli Kinky Llama Racing 30 30-39 Women 36 Mile 2:15:44 15.9
453 1727 Bill Potapa Hell Yes 55 55 & Older Men 36 Mile 2:15:45 15.9
454 1123 Chris Brower Freewheeler Bike Shop 36 Men Single Speed 36 Mile 2:15:54 15.9
455 1720 Kevin Podolski 41 40-44 Men 36 Mile 2:15:58 15.9
456 1652 Luke Mullis Wolverine Sports Club/acfstores.Com 13 11-19 Men 36 Mile 2:16:01 15.9
457 1025 Alex Angus Velocity 25 Men Single Speed 36 Mile 2:16:01 15.9
458 1924 James Turnbow 50 50-54 Men 36 Mile 2:16:04 15.9
459 1178 Kevin Cleary Trikats 51 50-54 Men 36 Mile 2:16:04 15.9
460 1795 Rob Schell 56 55 & Older Men 36 Mile 2:16:05 15.9
461 1998 Jeff Wood Racing Greyhounds 44 Fixed Gear 36 Mile 2:16:05 15.9
462 1238 Dwight Denisiuk Team Active Racing 39 35-39 Men 36 Mile 2:16:07 15.9
463 2001 Gregory Worsnop Kalamazoo Nordic 57 Men Single Speed 36 Mile 2:16:10 15.9
464 1605 Ryan McKinnie Two Wheel Tango 29 20-29 Men 36 Mile 2:16:29 15.8
465 1265 Steve Duisterhof Gordon Water Systems 2 50-54 Men 36 Mile 2:16:29 15.8
466 1120 Jay Bridgeman Custer Cyclery 37 35-39 Men 36 Mile 2:16:29 15.8
467 1818 Jeffrey Scofield Rapid Wheelmen 51 50-54 Men 36 Mile 2:16:29 15.8
468 1544 Jeff Linkus 34 30-34 Men 36 Mile 2:16:29 15.8
469 1550 Kevin Long 48 45-49 Men 36 Mile 2:16:30 15.8
470 1982 Jessica Whiton Xxx Racing-Athletico 38 30-39 Women 36 Mile 2:16:38 15.8
471 1151 Joe Carlson Msu-Scvn 50 50-54 Men 36 Mile 2:16:40 15.8
472 1738 Stacy Rainey Trophy Head Racing 35-39 Men 36 Mile 2:16:44 15.8
473 1950 Josh Vetter Racing Greyhounds 28 20-29 Men 36 Mile 2:16:44 15.8
474 1295 Paul Ford 54 50-54 Men 36 Mile 2:16:50 15.8
475 1627 Benjamin Miller Johnny Sprockets 32 30-34 Men 36 Mile 2:16:55 15.8
476 1283 Dan Fedewa Eric's Cycle 48 Men Single Speed 36 Mile 2:16:56 15.8
477 1302 Paul Fults Undergroundcoffeeandtea.Com & Custe 37 Men Single Speed 36 Mile 2:16:56 15.8
478 1509 Roxane Kruse Team Priority Health 35 30-39 Women 36 Mile 2:16:59 15.8
479 1505 Richard Haslinger 54 50-54 Men 36 Mile 2:17:00 15.8
480 1113 Brian Bratney Racing Greyhounds 32 30-34 Men 36 Mile 2:17:01 15.8
481 1035 K. Michael Babcock Stomachofanger 39 35-39 Men 36 Mile 2:17:04 15.8
482 1256 Dennis Doherty Trails Edge 61 55 & Older Men 36 Mile 2:17:05 15.8
483 1107 Kenneth Boyd The Motion Initiative 39 35-39 Men 36 Mile 2:17:07 15.8
484 1730 Todd Powers Team Sandbag 40 40-44 Men 36 Mile 2:17:08 15.8
485 1263 Jim Drummond Team Activator/activator Cycles 42 40-44 Men 36 Mile 2:17:16 15.7
486 1529 Karin Langer 33 30-39 Women 36 Mile 2:17:17 15.7
487 1852 Matthew Smith Cal Cycling 42 40-44 Men 36 Mile 2:17:25 15.7
488 1217 Scott Daigle Rapid Wheelmen 42 40-44 Men 36 Mile 2:17:25 15.7
489 1480 Brett Kincaid 41 Fat Bike 36 Mile 2:17:26 15.7
490 1128 Calvin Brown Jr Vision Quest Coaching 58 55 & Older Men 36 Mile 2:17:26 15.7
491 1619 John Meyer Area 51 Tattoos Racing Team 48 45-49 Men 36 Mile 2:17:29 15.7
492 1344 Dave Gordon Ce::four Cycling Chicago 55 55 & Older Men 36 Mile 2:17:32 15.7
493 1499 Chuck Kovick Mysinglespeed.Com 40 40-44 Men 36 Mile 2:17:34 15.7
494 1252 Steven Dimmick Na 46 Fat Bike 36 Mile 2:17:49 15.7
495 1284 Michael Fehrenbach Team Half-Fast 43 Fixed Gear 36 Mile 2:17:56 15.7
496 1299 Dean Frieders 33 Fat Bike 36 Mile 2:18:03 15.6
497 1633 Jack Miner Team Active Racing 49 45-49 Men 36 Mile 2:18:05 15.6
498 1493 Kurt Kobiljak Orange Rush 46 45-49 Men 36 Mile 2:18:09 15.6
499 1613 Michael Melnik 36 35-39 Men 36 Mile 2:18:12 15.6
500 1152 Andrew Carolus Collavita Chicago 43 40-44 Men 36 Mile 2:18:15 15.6
501 1176 Tracey Clark 38 30-39 Women 36 Mile 2:18:22 15.6
502 1826 John Sekendy 42 40-44 Men 36 Mile 2:18:26 15.6
503 1080 Jake Biernacki 36 35-39 Men 36 Mile 2:18:31 15.6
504 1533 Jon Lebarre 45 45-49 Men 36 Mile 2:18:32 15.6
505 1018 Chad Ament North Central Cyclery 25 Fat Bike 36 Mile 2:18:32 15.6
506 1240 Charlie Deppe Team Unicorn 33 Fat Bike 36 Mile 2:18:33 15.6
507 1542 Steve Lidak Cherry Capital Cycling Club 47 Fixed Gear 36 Mile 2:18:34 15.6
508 1897 Steve Tafelsky Apex Multisport 39 Men Single Speed 36 Mile 2:18:36 15.6
509 1162 Scott Chambers Farm Team Racing 41 40-44 Men 36 Mile 2:18:45 15.6
510 1296 Mark Fraker 38 35-39 Men 36 Mile 2:18:46 15.6
511 1007 Chad Aiello Racing Greyhounds 38 35-39 Men 36 Mile 2:18:47 15.6
512 1395 Jon Hatley 50 50-54 Men 36 Mile 2:18:48 15.6
513 1898 James Taylor 46 45-49 Men 36 Mile 2:18:48 15.6
514 1830 Susan Shaw Fusion It 44 40 & Older Women 36 Mile 2:18:56 15.5
515 1185 John Conlin Mom And Pop Racing/sweet Bikes 44 40-44 Men 36 Mile 2:18:59 15.5
516 1016 Ryan Allen D2 Racing 35 35-39 Men 36 Mile 2:19:00 15.5
517 1201 Anthony Cressey Racing Greyhounds 38 Men Single Speed 36 Mile 2:19:00 15.5
518 1414 Daniel Hoffman Aberdeen Cycles 58 55 & Older Men 36 Mile 2:19:05 15.5
519 1345 Jeff Gordon 35 35-39 Men 36 Mile 2:19:09 15.5
520 1367 Todd Gyulveszi Short's Brewing Company 50 50-54 Men 36 Mile 2:19:10 15.5
521 1257 Darryl Dolby Kbc Racing 48 45-49 Men 36 Mile 2:19:11 15.5
522 1657 Frank Musto 56 55 & Older Men 36 Mile 2:19:12 15.5
523 1142 Anthony Byram Ann Arbor Velo Club 27 20-29 Men 36 Mile 2:19:12 15.5
524 1221 Lee Dart Team Half-Fast 39 Fixed Gear 36 Mile 2:19:16 15.5
525 1477 David Kibler 41 40-44 Men 36 Mile 2:19:22 15.5
526 1309 James Gallagher Team Active Racing 51 50-54 Men 36 Mile 2:19:29 15.5
527 1464 Marc Karel 37 35-39 Men 36 Mile 2:19:30 15.5
528 1139 Robert Bunting 31 30-34 Men 36 Mile 2:19:42 15.5
529 1800 Dean Schmidlapp Juice Box Racing 52 50-54 Men 36 Mile 2:19:44 15.5
530 1402 Mark Hendershot Santa Cruz Syndicate 47 Fat Bike 36 Mile 2:19:48 15.5
531 1119 Heather Brewer West Michigan Coast Riders 33 30-39 Women 36 Mile 2:19:48 15.5
532 1303 Greg Furry Team22 44 40-44 Men 36 Mile 2:19:48 15.5
533 1074 David Bergman Team Jtree 44 40-44 Men 36 Mile 2:19:49 15.4
534 1312 Joseph Vincent Gaton Mpmba 15 11-19 Men 36 Mile 2:19:49 15.4
535 1596 Richard McCulloch 42 40-44 Men 36 Mile 2:19:58 15.4
536 1268 Terry L. Duvall Jr. Illinois Valley Cycling Ass. 34 30-34 Men 36 Mile 2:20:02 15.4
537 1512 Heather Kubiak Real Women Tri 48 40 & Older Women 36 Mile 2:20:08 15.4
538 1861 Greg Southwell Garmin 52 50-54 Men 36 Mile 2:20:10 15.4
539 1926 Mike Upman 53 50-54 Men 36 Mile 2:20:11 15.4
540 1085 Gregory Blake 59 55 & Older Men 36 Mile 2:20:12 15.4
541 1629 Don Miller Draughtmaster Racing 50 50-54 Men 36 Mile 2:20:14 15.4
542 1890 Jim Supple 49 45-49 Men 36 Mile 2:20:14 15.4
543 1647 John Muenzenmeyer 616 Fabrication 47 Fat Bike 36 Mile 2:20:14 15.4
544 1111 Doug Bradley 47 45-49 Men 36 Mile 2:20:14 15.4
545 1313 Dan Gauthier 58 55 & Older Men 36 Mile 2:20:15 15.4
546 1382 Summer Olmstead Custer Cyclery 33 30-39 Women 36 Mile 2:20:20 15.4
547 1676 Daniel Nolan 61 Men Single Speed 36 Mile 2:20:21 15.4
548 1558 Jim Lovett Racing Greyhounds 43 40-44 Men 36 Mile 2:20:22 15.4
549 1785 Jim Samlow Cross Country Cycle/team Gomez 42 Men Single Speed 36 Mile 2:20:27 15.4
550 1532 Paul Leason Team Freewheeler 39 35-39 Men 36 Mile 2:20:44 15.3
551 1358 Blayne Greiner Xxx Racing - Athletico 29 20-29 Men 36 Mile 2:20:51 15.3
552 1100 Justin Booth 39 35-39 Men 36 Mile 2:20:57 15.3
553 1681 Thomas Noverr 56 55 & Older Men 36 Mile 2:21:00 15.3
554 1602 Dave McIntee 58 55 & Older Men 36 Mile 2:21:06 15.3
555 1980 Don Whitacre Team Riddler 44 40-44 Men 36 Mile 2:21:06 15.3
556 1009 Eric Alexander 35 35-39 Men 36 Mile 2:21:08 15.3
557 1900 Sarah Temby 31 30-39 Women 36 Mile 2:21:09 15.3
558 1777 Nathan Russell Maumee Valley Wheelmen 39 35-39 Men 36 Mile 2:21:09 15.3
559 1306 Robert Gaddis 616 Fabrication 49 Fat Bike 36 Mile 2:21:22 15.3
560 1534 Justin Lebb Team Iron Cycles 28 20-29 Men 36 Mile 2:21:23 15.3
561 1646 Gary Mudd 31 30-34 Men 36 Mile 2:21:24 15.3
562 1483 Brett Kirby 43 Men Single Speed 36 Mile 2:21:25 15.3
563 1892 Eimontas Svabas Devbridge 31 30-34 Men 36 Mile 2:21:26 15.3
564 1555 Michael Lorenger Racing Greyhounds 37 35-39 Men 36 Mile 2:21:27 15.3
565 1347 Gavin Gould Half Acre Cycling 33 30-34 Men 36 Mile 2:21:30 15.3
566 1813 Bob Schultz Priority Health Cycling Team 55 55 & Older Men 36 Mile 2:21:33 15.3
567 1661 Gregory Neagos 51 50-54 Men 36 Mile 2:21:34 15.3
568 1944 Matthew Vanmiddlesworth 52 50-54 Men 36 Mile 2:21:34 15.3
569 1591 Brad May Klm/cold Stone 47 45-49 Men 36 Mile 2:21:34 15.3
570 1562 David Lynch 47 45-49 Men 36 Mile 2:21:34 15.3
571 1951 Steve Vigneau Big Ring Coffee 33 30-34 Men 36 Mile 2:21:42 15.2
572 1798 Steven Schilling Team Mack Racing 44 Men Single Speed 36 Mile 2:21:43 15.2
573 1527 Eric Landahl Spidermonkey Cycling 39 35-39 Men 36 Mile 2:21:51 15.2
574 1172 John Cisler Capital 52 50-54 Men 36 Mile 2:21:57 15.2
575 1642 Tammy Moran Real Women Tri/chicago Dr. Cycling 42 40 & Older Women 36 Mile 2:22:11 15.2
576 1698 Daniel Paschall Gears And Beers 37 35-39 Men 36 Mile 2:22:21 15.2
577 1878 Marlin Steinhauser 21 20-29 Men 36 Mile 2:22:22 15.2
578 1653 Nigel Mullis Cadieux/o2 51 50-54 Men 36 Mile 2:22:42 15.1
579 1648 Steven Muenzenmeyer Team V 52 Fat Bike 36 Mile 2:22:46 15.1
580 2012 Rudy Zarate Xxx Racing-Athletico 36 35-39 Men 36 Mile 2:22:49 15.1
581 2017 Gediminas Zukas 35 35-39 Men 36 Mile 2:22:54 15.1
582 1885 Tom Stoner 40 40-44 Men 36 Mile 2:23:03 15.1
583 1384 Stuart Hannon Tuxedo Thunder 21 20-29 Men 36 Mile 2:23:10 15.1
584 1715 Randy Pierce Racing Greyhounds 40 40-44 Men 36 Mile 2:23:16 15.1
585 1696 Brian Parker Banzai Racing 50 50-54 Men 36 Mile 2:23:17 15.1
586 1282 Nicole Falk West Town Bikes 32 30-39 Women 36 Mile 2:23:29 15.1
587 1125 Alex Brown The North Face 34 30-34 Men 36 Mile 2:23:41 15.0
588 1597 Rick McDowell 37 35-39 Men 36 Mile 2:23:48 15.0
589 1984 Thomas Wideman Macatawa Cycling Club 47 45-49 Men 36 Mile 2:23:48 15.0
590 1857 Charles Snyder None 47 45-49 Men 36 Mile 2:23:52 15.0
591 1391 Chris Harvey 41 40-44 Men 36 Mile 2:23:54 15.0
592 1490 Steve Kloosterman Team Highbanks 44 Men Single Speed 36 Mile 2:24:00 15.0
593 1828 Danielle Shaver Founders Alger Aracing 27 11-29 Women 36 Mile 2:24:04 15.0
594 1250 Daniel Dillbeck Rapid Wheelmen 38 35-39 Men 36 Mile 2:24:04 15.0
595 1726 Kevin Postel 54 50-54 Men 36 Mile 2:24:05 15.0
596 1755 Thomas Rieth 42 40-44 Men 36 Mile 2:24:05 15.0
597 1036 Bryan Bach 45 45-49 Men 36 Mile 2:24:07 15.0
598 1531 Al Lauland Team Troll 58 55 & Older Men 36 Mile 2:24:07 15.0
599 1624 Michael Mihelich Michael Mihelich 36 35-39 Men 36 Mile 2:24:08 15.0
600 1853 Steve Smith Cft Cycling Team 53 50-54 Men 36 Mile 2:24:08 15.0
601 1650 Jason Mulligan 33 30-34 Men 36 Mile 2:24:21 15.0
602 1724 Alan Post Speed Merchants 45 45-49 Men 36 Mile 2:24:25 15.0
603 1219 Mustapha Dakroub 50 50-54 Men 36 Mile 2:24:25 15.0
604 1655 Patrick Murphy Racing Greyhounds 37 35-39 Men 36 Mile 2:24:29 14.9
605 1333 Christian Glupker 39 35-39 Men 36 Mile 2:24:31 14.9
606 1479 James Kimball 43 40-44 Men 36 Mile 2:24:33 14.9
607 1053 Steve Bassett Team Hot Dog 35 35-39 Men 36 Mile 2:24:41 14.9
608 1631 Neil Miller Team Jtree 51 50-54 Men 36 Mile 2:25:06 14.9
609 1375 Ted Haladyna Racing Greyhounds 33 30-34 Men 36 Mile 2:25:07 14.9
610 1460 Matt Kamps Freewheeler Racing 27 Men Single Speed 36 Mile 2:25:07 14.9
611 1592 Bradley May Illinois Valley Cycling Association 43 40-44 Men 36 Mile 2:25:09 14.9
612 1552 Ron Long 58 55 & Older Men 36 Mile 2:25:20 14.9
613 1292 Jeremy Flynn 34 30-34 Men 36 Mile 2:25:31 14.8
614 1327 Janedward Gierlach 13 11-19 Men 36 Mile 2:25:31 14.8
615 1805 Michael Schneider 40 40-44 Men 36 Mile 2:25:32 14.8
616 1410 Kevin Hier 41 40-44 Men 36 Mile 2:25:32 14.8
617 1680 Jesse Noteboom Trophy Head Racing 31 30-34 Men 36 Mile 2:25:39 14.8
618 1177 Kelly Clarke Spidermonkey Cycling 30 30-39 Women 36 Mile 2:25:40 14.8
619 1673 Michael Niemi Poto Mafia 46 45-49 Men 36 Mile 2:25:45 14.8
620 1683 David Nutt Main Street Bicycles 59 55 & Older Men 36 Mile 2:25:54 14.8
621 1317 Matt George Priority Health 17 11-19 Men 36 Mile 2:25:56 14.8
622 1837 Nick Shue Big Ring Racing 45 45-49 Men 36 Mile 2:25:58 14.8
623 1766 Jeff Roesner Racing For Riley 35 35-39 Men 36 Mile 2:26:00 14.8
624 1651 Danielle Mullis Wolverine/acfstores.Com 15 11-29 Women 36 Mile 2:26:00 14.8
625 2015 Rob Zeldenrust 48 45-49 Men 36 Mile 2:26:02 14.8
626 1889 David Sund 46 45-49 Men 36 Mile 2:26:11 14.8
627 1764 Dave Roerig Cal Cycling 49 45-49 Men 36 Mile 2:26:14 14.8
628 1496 Keegan Korienek Leadout Racing/kentwood Cycling And 13 11-19 Men 36 Mile 2:26:22 14.8
629 1106 Richard Bowling Racing Greyhounds 58 55 & Older Men 36 Mile 2:26:29 14.7
630 1851 Jeff Smith Trails Edge 41 40-44 Men 36 Mile 2:26:30 14.7
631 1472 Merry Vander Linden Flying Rhino Cycling Club 59 40 & Older Women 36 Mile 2:26:30 14.7
632 2021 Gail Goehrig Team Madcross 46 40 & Older Women 36 Mile 2:26:31 14.7
633 1393 Peggy Hasse 43 40 & Older Women 36 Mile 2:26:31 14.7
634 1431 Doug Huyser Speed Merchants 54 50-54 Men 36 Mile 2:26:32 14.7
635 1796 Robert Scheper 50 50-54 Men 36 Mile 2:26:33 14.7
636 1478 Jed Kidwell 'mark It Zero' Racing 48 45-49 Men 36 Mile 2:26:34 14.7
637 1855 Barry Snellgrove 54 50-54 Men 36 Mile 2:26:37 14.7
638 1168 Nicholas Childers Klm/coldstone 34 30-34 Men 36 Mile 2:26:38 14.7
639 1546 Jason Lodzinski Black And Blue 30 30-34 Men 36 Mile 2:26:45 14.7
640 1169 Laurie Chipps Half Acre Cycling 33 30-39 Women 36 Mile 2:26:55 14.7
641 1362 Jennifer Groen Half Acre Cycling 42 40 & Older Women 36 Mile 2:26:57 14.7
642 1387 Alan Harbaugh Alan D. Harbaugh Attorney At Law Pl 45 45-49 Men 36 Mile 2:27:01 14.7
643 1098 Jim Weitzmann X-Tension 52 50-54 Men 36 Mile 2:27:07 14.7
644 1171 Gary Church 48 45-49 Men 36 Mile 2:27:19 14.7
645 1211 Brian Curtis 48 45-49 Men 36 Mile 2:27:20 14.7
646 1145 Brian Campbell 44 40-44 Men 36 Mile 2:27:27 14.6
647 1057 Jody Beard Custer Cyclery 42 40 & Older Women 36 Mile 2:27:27 14.6
648 1767 John Rogers Tire Rack 46 45-49 Men 36 Mile 2:27:34 14.6
649 1553 Matt Longest Team Jtree 34 30-34 Men 36 Mile 2:27:43 14.6
650 1716 Jim Pike 36 35-39 Men 36 Mile 2:27:48 14.6
651 1095 Greg Bok 26 20-29 Men 36 Mile 2:27:49 14.6
652 2025 Christopher Greene J'S Bikes/ihop 65 55 & Older Men 36 Mile 2:27:54 14.6
653 1215 Joseph Cutcher 58 55 & Older Men 36 Mile 2:27:54 14.6
654 1849 Philip Saoud Wolverine Sports Club 54 50-54 Men 36 Mile 2:27:55 14.6
655 1091 Sarah Lu Team Tati 28 11-29 Women 36 Mile 2:27:55 14.6
656 1227 James Deboer 48 45-49 Men 36 Mile 2:27:56 14.6
657 1607 Dan McPeek 50 50-54 Men 36 Mile 2:27:56 14.6
658 1117 Jack Lee Team J Tree 52 50-54 Men 36 Mile 2:27:56 14.6
659 1569 John H Mahon 53 50-54 Men 36 Mile 2:27:57 14.6
660 1161 Rob Chamberlin 38 35-39 Men 36 Mile 2:27:57 14.6
661 1352 Steve Gray The Motion Initiative 40 40-44 Men 36 Mile 2:28:03 14.6
662 1349 Kirk Graham Bissell/abg 41 40-44 Men 36 Mile 2:28:05 14.6
663 1133 Doug Buckbee 49 45-49 Men 36 Mile 2:28:07 14.6
664 1753 Angela Ridgel Snakebite Racing 41 40 & Older Women 36 Mile 2:28:10 14.6
665 1322 Jim Getting Jimmystuff.Com 45 45-49 Men 36 Mile 2:28:17 14.6
666 1156 Leo Catalla Mpmba 45 45-49 Men 36 Mile 2:28:19 14.6
667 1427 Sean Hunt 39 35-39 Men 36 Mile 2:28:20 14.6
668 1620 Jeremy Meyering Hell Yes! 42 Fixed Gear 36 Mile 2:28:23 14.6
669 1077 Conner Besic Area 51 19 11-19 Men 36 Mile 2:28:26 14.6
670 1877 Jon Steinhauser 48 45-49 Men 36 Mile 2:28:28 14.5
671 1781 Gregory Ryan Freewheeler Bike Shop 45 45-49 Men 36 Mile 2:28:29 14.5
672 1153 Jason Carpenter 40 40-44 Men 36 Mile 2:28:29 14.5
673 1067 Gene Benedict 41 40-44 Men 36 Mile 2:28:35 14.5
674 1353 Darrell Greathouse Lakeview Animal Hospital 46 45-49 Men 36 Mile 2:28:40 14.5
675 1451 Richard Jones 65 55 & Older Men 36 Mile 2:28:46 14.5
676 1105 Bob Bowling 45 45-49 Men 36 Mile 2:28:56 14.5
677 1446 Jerome Joly Freewheeler Bike Shop 35 35-39 Men 36 Mile 2:29:06 14.5
678 1787 Bob Sandy Bikeworks / Il. Valley Cycling Asso 50 50-54 Men 36 Mile 2:29:12 14.5
679 1728 Curt Potocki Team Sandbag 37 35-39 Men 36 Mile 2:29:14 14.5
680 1516 Amy Kulesza Team Jeni's 33 30-39 Women 36 Mile 2:29:15 14.5
681 1225 Dan De Looff 41 40-44 Men 36 Mile 2:29:15 14.5
682 1376 Beth Hall 47 40 & Older Women 36 Mile 2:29:32 14.4
683 1936 Kerry Van Renterghem Team Rack 48 40 & Older Women 36 Mile 2:29:40 14.4
684 1370 Arthur Haan Team Ritalin 45 45-49 Men 36 Mile 2:29:42 14.4
685 2030 Randy Vant Hul Freewheeler Racing 54 50-54 Men 36 Mile 2:29:42 14.4
686 1775 David Ruppert Medical Resource Group 53 50-54 Men 36 Mile 2:29:44 14.4
687 1561 Larry Lynam 52 50-54 Men 36 Mile 2:29:44 14.4
688 1623 Marci Michmerhuizen Macatawa Cycling Club 39 30-39 Women 36 Mile 2:29:52 14.4
689 1318 Bill Gephart 55 55 & Older Men 36 Mile 2:29:57 14.4
690 1641 Brian Moran Leadout Racing/kentwood Cycling And 41 40-44 Men 36 Mile 2:29:57 14.4
691 1017 Micah Alles Atomic Object 31 Fat Bike 36 Mile 2:29:57 14.4
692 1023 Paul Anderson North Central Cyclery 32 Fat Bike 36 Mile 2:30:04 14.4
693 1055 Brian Bauer Cycletherapy 35 35-39 Men 36 Mile 2:30:08 14.4
694 1224 Roderick De Jesus Tuxedo Thunder 26 20-29 Men 36 Mile 2:30:16 14.4
695 1037 Tom Baginskis 43 40-44 Men 36 Mile 2:30:18 14.4
696 1958 Keith Wallace 32 30-34 Men 36 Mile 2:30:26 14.4
697 1999 Mike Woods Racing Greyhounds 28 Fixed Gear 36 Mile 2:30:28 14.4
698 1733 Jeff Provisor North Branch Cycling Club 44 40-44 Men 36 Mile 2:30:36 14.3
699 1770 Emily Hart 54 40 & Older Women 36 Mile 2:30:41 14.3
700 1501 Rick Kozole Team Jtree 43 40-44 Men 36 Mile 2:30:55 14.3
701 1214 Michael Cusick Racing For Riley 41 40-44 Men 36 Mile 2:30:58 14.3
702 1149 Jeffrey Carek Mom & Pop Racing Pb Sweet Bikes 46 45-49 Men 36 Mile 2:31:02 14.3
703 1804 Ken Schneider 31 30-34 Men 36 Mile 2:31:04 14.3
704 1498 Nate Koster 26 20-29 Men 36 Mile 2:31:06 14.3
705 1568 Richard Mahn 62 55 & Older Men 36 Mile 2:31:09 14.3
706 1272 Charles Elder Team Active Racing 34 30-34 Men 36 Mile 2:31:25 14.3
707 1928 Glenn Valdez 36 35-39 Men 36 Mile 2:31:31 14.3
708 1281 Robert Falik Stomachofanger 39 35-39 Men 36 Mile 2:31:38 14.2
709 1184 Jen Conine 37 30-39 Women 36 Mile 2:31:41 14.2
710 1940 Kate Vanderleek 35 30-39 Women 36 Mile 2:31:41 14.2
711 1974 Richard Wells 46 45-49 Men 36 Mile 2:31:51 14.2
712 1744 Chris Reed 32 30-34 Men 36 Mile 2:31:54 14.2
713 1714 James Picotte 37 35-39 Men 36 Mile 2:31:57 14.2
714 1287 Mark Fellwock 26 20-29 Men 36 Mile 2:32:01 14.2
715 1702 Donald Payerle 47 45-49 Men 36 Mile 2:32:02 14.2
716 1001 Michael Abene Half Acre 47 45-49 Men 36 Mile 2:32:03 14.2
717 1409 Robert Hicks 46 45-49 Men 36 Mile 2:32:04 14.2
718 1087 Jeff Blasen 49 45-49 Men 36 Mile 2:32:08 14.2
719 1867 Mark Spoelhof 30 Men Single Speed 36 Mile 2:32:14 14.2
720 1701 Anthony Pawlak 46 45-49 Men 36 Mile 2:32:17 14.2
721 2009 Eric York Cross Club 32 30-34 Men 36 Mile 2:32:17 14.2
722 1976 Robert Werkema 54 50-54 Men 36 Mile 2:32:37 14.2
723 2014 Bob Zeilstra 28 Fixed Gear 36 Mile 2:32:44 14.1
724 1921 Gary Trap Rapid Wheelmen 59 55 & Older Men 36 Mile 2:33:00 14.1
725 1968 Jennifer Weber Trek 29 11-29 Women 36 Mile 2:33:07 14.1
726 1491 Randy Knapp West Michigan Coast Riders 52 50-54 Men 36 Mile 2:33:07 14.1
727 1066 Mike Benedek Lake Effect 36 35-39 Men 36 Mile 2:33:14 14.1
728 1373 John Haffenden 43 40-44 Men 36 Mile 2:33:15 14.1
729 1945 Xavier Vasquez **** 41 40-44 Men 36 Mile 2:33:18 14.1
730 1473 Ryan Kelly Dudeman Racing 37 35-39 Men 36 Mile 2:33:20 14.1
731 1188 Greg Cook 62 55 & Older Men 36 Mile 2:33:57 14.0
732 1245 Brian Devries 31 30-34 Men 36 Mile 2:34:00 14.0
733 1923 Chuck Truex 40 40-44 Men 36 Mile 2:34:01 14.0
734 1443 David Johnson 47 45-49 Men 36 Mile 2:34:02 14.0
735 1723 Lisa Popa Custer Cyclery 40 40 & Older Women 36 Mile 2:34:03 14.0
736 1340 David Goff 60 Fat Bike 36 Mile 2:34:04 14.0
737 1637 Josh Mokma Possible Leadout Club - Working On 30 30-34 Men 36 Mile 2:34:14 14.0
738 1706 Allison Peck 25 11-29 Women 36 Mile 2:34:16 14.0
739 1842 Erik Silvassy Big Ring Racing 37 35-39 Men 36 Mile 2:34:24 14.0
740 1709 Jennifer Peters Jeni's Ice Creams 30 30-39 Women 36 Mile 2:34:33 14.0
741 1083 Charles Bittman Lifetime Fitness 48 45-49 Men 36 Mile 2:35:00 13.9
742 1487 Seth Kleinglass Mom & Pop Racing/sweet Bikes 34 30-34 Men 36 Mile 2:35:01 13.9
743 2023 Dennis Bean Larson Hell Yes 66 55 & Older Men 36 Mile 2:35:07 13.9
744 1504 Jay Krause 46 45-49 Men 36 Mile 2:35:07 13.9
745 1244 Nancy Desmond Club Spin 46 40 & Older Women 36 Mile 2:35:11 13.9
746 1039 Byron Bailey 55 55 & Older Men 36 Mile 2:35:12 13.9
747 1654 James Mumaw 39 35-39 Men 36 Mile 2:35:19 13.9
748 1208 Nhoel Cruz Mpmba 31 30-34 Men 36 Mile 2:35:20 13.9
749 1895 Rod Swanson Infinite Muli-Sport 43 40-44 Men 36 Mile 2:35:26 13.9
750 1343 Robert Goodine Eric's Cycle And Fitness 57 55 & Older Men 36 Mile 2:35:36 13.9
751 1180 Greg Clugston 62 55 & Older Men 36 Mile 2:35:46 13.9
752 1461 Dan Kardatzke Gears & Beers Racing 38 35-39 Men 36 Mile 2:35:54 13.9
753 2013 Ron Zeeb Capital Fund Title 64 55 & Older Men 36 Mile 2:36:13 13.8
754 1226 Sabinel Deacu Racing Greyhounds 37 Men Single Speed 36 Mile 2:36:21 13.8
755 1802 Jason Schneider Team Sandbag/macomb 37 35-39 Men 36 Mile 2:36:36 13.8
756 1389 Sara Harper Snakebite Racing 21 11-29 Women 36 Mile 2:36:40 13.8
757 1326 Ed Gierlach 47 45-49 Men 36 Mile 2:36:40 13.8
758 1079 Steve Biedron Mox Multisport 38 35-39 Men 36 Mile 2:36:44 13.8
759 1233 Shawn Demarest Team Zeitgeist 42 40-44 Men 36 Mile 2:36:57 13.8
760 1028 Jim Aspinall 41 40-44 Men 36 Mile 2:37:05 13.8
761 1271 Barry Edwards 59 55 & Older Men 36 Mile 2:37:24 13.7
762 1554 Jon Looman 49 45-49 Men 36 Mile 2:37:27 13.7
763 1371 Jeff Haas 63 55 & Older Men 36 Mile 2:37:40 13.7
764 1758 Randy Riley 49 45-49 Men 36 Mile 2:37:46 13.7
765 2005 Fred Wu Spidermonkey Cycling 32 30-34 Men 36 Mile 2:38:02 13.7
766 1925 Joseph Turoff Chervon North America 40 40-44 Men 36 Mile 2:38:09 13.7
767 1894 Kirsten Swanson Mox Multisport 46 40 & Older Women 36 Mile 2:38:24 13.6
768 1721 Steve Poirier Team Jtree 30 30-34 Men 36 Mile 2:38:28 13.6
769 1251 Mike Dilly Team Turtle 43 Men Single Speed 36 Mile 2:38:29 13.6
770 1847 Jared Smerecki Hot Dog Racing... Wheeeee! 39 Men Single Speed 36 Mile 2:38:31 13.6
771 1557 Henry Loria Team Lactic Acid 41 40-44 Men 36 Mile 2:38:32 13.6
772 1311 Joseph T Gaton Mpmba 41 40-44 Men 36 Mile 2:38:34 13.6
773 1228 Jay Deboer Kenosha Drivers Club 48 45-49 Men 36 Mile 2:38:36 13.6
774 1231 Brian Delvecchio Team Flannel 42 40-44 Men 36 Mile 2:38:41 13.6
775 1481 John Kinch 48 45-49 Men 36 Mile 2:38:48 13.6
776 1011 Benjamin Algera 33 30-34 Men 36 Mile 2:39:07 13.6
777 1871 Annette Stahelin Half Acre Cycling 32 30-39 Women 36 Mile 2:39:16 13.6
778 1822 Stewart Seaholm Cyclocrossracing.Com 55 55 & Older Men 36 Mile 2:39:27 13.5
779 1525 Timothy Lampen 30 30-34 Men 36 Mile 2:39:32 13.5
780 1866 Joshua Spisak 27 20-29 Men 36 Mile 2:39:40 13.5
781 1044 Ginger Ballard Team Jeni's Icecream 47 40 & Older Women 36 Mile 2:39:41 13.5
782 1061 William Becker Team22 48 45-49 Men 36 Mile 2:40:14 13.5
783 1803 John Schneider 61 55 & Older Men 36 Mile 2:40:26 13.5
784 1537 Andrea Lehr Juice Box Racing 37 30-39 Women 36 Mile 2:40:30 13.5
785 1841 Steve Sillman 49 45-49 Men 36 Mile 2:40:31 13.5
786 1762 Tom Roberts 61 55 & Older Men 36 Mile 2:40:39 13.4
787 1789 Brad Savage 51 50-54 Men 36 Mile 2:40:56 13.4
788 1780 Dave Rutledge 46 45-49 Men 36 Mile 2:41:33 13.4
789 1863 Gary Spencer Ilmor Engineering Inc 48 45-49 Men 36 Mile 2:41:36 13.4
790 1603 Carlos McIntyre Trails Edge Cyclery 38 35-39 Men 36 Mile 2:41:42 13.4
791 1779 Chris Russo Racing Greyhounds 35 35-39 Men 36 Mile 2:41:51 13.3
792 1740 Richard Rancourt 56 55 & Older Men 36 Mile 2:42:15 13.3
793 1258 Jim Donaldson Elite Endeavors 68 55 & Older Men 36 Mile 2:42:38 13.3
794 1207 Alexander Cruz Mpmba 51 50-54 Men 36 Mile 2:42:39 13.3
795 1002 Tony Achacon Michigan Pinoy Mountain Bikers Asso 48 45-49 Men 36 Mile 2:42:39 13.3
796 1717 John Pike Stomach Of Anger 40 40-44 Men 36 Mile 2:42:46 13.3
797 1722 Michael Pominville Racing Greyhounds 52 50-54 Men 36 Mile 2:42:52 13.3
798 1961 Matthew Warner 29 20-29 Men 36 Mile 2:42:54 13.3
799 1835 Mike Shrift Trek 52 Men Single Speed 36 Mile 2:43:04 13.2
800 1163 David Chapman Hometown Bikes 47 Fat Bike 36 Mile 2:43:29 13.2
801 1593 Sean McCann Mox Multisport 45 45-49 Men 36 Mile 2:43:45 13.2
802 1209 Doug Crysler R4ac Cycling Project 42 40-44 Men 36 Mile 2:44:31 13.1
803 1528 Nancy Lange Priority Health Cycling Team 58 40 & Older Women 36 Mile 2:44:35 13.1
804 1136 Jun Buison Michigan Pinoy Mountain Bikers Asso 45 45-49 Men 36 Mile 2:44:46 13.1
805 1609 Adam Medema 28 20-29 Men 36 Mile 2:45:05 13.1
806 1575 Tony Maravolo Rapid Wheelmen 35 35-39 Men 36 Mile 2:45:12 13.1
807 1031 Katie Aulbach 31 30-39 Women 36 Mile 2:45:19 13.1
808 1110 Emily Savickis 29 11-29 Women 36 Mile 2:45:53 13.0
809 1572 Fred Makled 48 45-49 Men 36 Mile 2:46:06 13.0
810 1964 Colleen Watson Liv/giant - Village Bike Shop Mtb T 45 40 & Older Women 36 Mile 2:46:23 13.0
811 1497 William Hoyer Precision Aerospace Corp 52 50-54 Men 36 Mile 2:46:42 13.0
812 1893 Daniel Swain Turbo Pavers 36 35-39 Men 36 Mile 2:46:42 13.0
813 1699 Christopher Patrick 42 40-44 Men 36 Mile 2:46:46 13.0
814 1634 Michelle Minnerick 37 30-39 Women 36 Mile 2:46:48 12.9
815 1403 David Hendricks 46 45-49 Men 36 Mile 2:47:39 12.9
816 1989 Wendi Willis 39 30-39 Women 36 Mile 2:47:46 12.9
817 1963 Edward Warzyniec Ad-Hoc 56 55 & Older Men 36 Mile 2:47:52 12.9
818 1492 Brian Knowles 38 35-39 Men 36 Mile 2:48:14 12.8
819 1063 Roger Behling 43 40-44 Men 36 Mile 2:48:15 12.8
820 1667 Travis Nelson Rooftop Sedums 22 20-29 Men 36 Mile 2:48:27 12.8
821 1915 Henry Tolentino Mpmba 41 40-44 Men 36 Mile 2:48:41 12.8
822 1942 Roberta Vanhaitsma Real Women Tri 46 40 & Older Women 36 Mile 2:49:19 12.8
823 1649 Chris Muller Brewery Vivant 40 Fat Bike 36 Mile 2:49:22 12.8
824 2011 Douglas Youngerman 44 40-44 Men 36 Mile 2:49:31 12.7
825 1191 Jeffrey Cooper Team Hot Dog 42 Men Single Speed 36 Mile 2:49:32 12.7
826 1297 Thomas Franz 58 55 & Older Men 36 Mile 2:49:59 12.7
827 1335 Paul Goc Team Tati 46 45-49 Men 36 Mile 2:50:07 12.7
828 1218 Justin Daining Polobicicleta.Com 28 Men Single Speed 36 Mile 2:50:13 12.7
829 1880 Tom Stevens 48 45-49 Men 36 Mile 2:50:13 12.7
830 1320 Dave Gerathy 42 40-44 Men 36 Mile 2:50:48 12.6
831 1006 Nancy Agrillo 44 40 & Older Women 36 Mile 2:51:10 12.6
832 1338 Don Goetcheus 45 45-49 Men 36 Mile 2:51:11 12.6
833 1594 Gene McClain 56 55 & Older Men 36 Mile 2:51:20 12.6
834 1875 Warren Schuitema 24 20-29 Men 36 Mile 2:51:58 12.6
835 1819 Jenny Scott 31 30-39 Women 36 Mile 2:52:06 12.6
836 1672 Luke Niehof 62 55 & Older Men 36 Mile 2:52:42 12.5
837 1429 Daryl Hutson 31 30-34 Men 36 Mile 2:52:56 12.5
838 1965 Tracy Weaver Racing Greyhounds 51 40 & Older Women 36 Mile 2:53:11 12.5
839 1476 Aleks Kerzee-Stames Mox Multisport 26 20-29 Men 36 Mile 2:53:59 12.4
840 1334 Hanna Goc Team Tati 14 11-29 Women 36 Mile 2:54:04 12.4
841 1674 Robert Noe Area 51 Tattoos Racing Team 65 55 & Older Men 36 Mile 2:54:05 12.4
842 1742 Dustin Rayner Milford Athletic Club 33 30-34 Men 36 Mile 2:54:13 12.4
843 1278 Sean Evans Custer Cyclery 35 35-39 Men 36 Mile 2:54:36 12.4
844 1078 Marleah Bevelacqua 43 40 & Older Women 36 Mile 2:55:44 12.3
845 1160 George Chacko 40 40-44 Men 36 Mile 2:56:05 12.3
846 1261 John Drazba Team Hot Dog 35 35-39 Men 36 Mile 2:56:10 12.3
847 1060 Mark Becker 52 50-54 Men 36 Mile 2:56:45 12.2
848 1495 Mark Konynenbelt 45 45-49 Men 36 Mile 2:56:55 12.2
849 1743 Cecile Redoble Mox Multisport 42 40 & Older Women 36 Mile 2:57:01 12.2
850 1639 Macki Monton Mpmba 29 20-29 Men 36 Mile 2:57:22 12.2
851 1959 Tom Ward 52 50-54 Men 36 Mile 2:57:52 12.1
852 1688 Ron Olson Team Fraser 63 55 & Older Men 36 Mile 2:58:20 12.1
853 1658 Mary Musto 57 40 & Older Women 36 Mile 2:58:57 12.1
854 1193 Robert Costello Trail's Edge 51 Fat Bike 36 Mile 2:59:21 12.0
855 1447 David Jones 44 40-44 Men 36 Mile 2:59:40 12.0
856 1821 Douglas Scranton Team Turtle 46 Men Single Speed 36 Mile 2:59:55 12.0
857 1947 Larry Vena 45 45-49 Men 36 Mile 2:59:58 12.0
858 1757 Kevin Riley 54 50-54 Men 36 Mile 3:00:58 11.9
859 1071 Robert Bennett Racing Greyhounds 46 45-49 Men 36 Mile 3:01:25 11.9
860 1956 Todd Wade Kalamazoo 34 Men Single Speed 36 Mile 3:01:45 11.9
861 1677 Kevin Nolley Team Sandbag 41 40-44 Men 36 Mile 3:02:41 11.8
862 1622 Jered Michael 38 35-39 Men 36 Mile 3:02:42 11.8
863 1809 Stephen Schousen 57 55 & Older Men 36 Mile 3:03:22 11.8
864 1833 Jason Short Machismo Cyclismo 31 30-34 Men 36 Mile 3:03:35 11.8
865 1751 Alan Rheault 48 45-49 Men 36 Mile 3:03:57 11.7
866 1675 Ronald Nol Brewery Vivant 41 Fat Bike 36 Mile 3:04:44 11.7
867 1050 Brett Barringer Team Brett 38 35-39 Men 36 Mile 3:06:00 11.6
868 1084 Caroline Blake 65 40 & Older Women 36 Mile 3:06:01 11.6
869 1424 Jen Huckett Jeni's Ice Creams 34 30-39 Women 36 Mile 3:07:57 11.5
870 1938 Daniel Vandeneede Team Phoenix 52 50-54 Men 36 Mile 3:11:00 11.3
871 1089 Mark Bliss 37 35-39 Men 36 Mile 3:11:32 11.3
872 1248 Tom Dickson Eaton 53 50-54 Men 36 Mile 3:12:31 11.2
873 1997 Donald Wood Poto Mafia 46 Fat Bike 36 Mile 3:15:24 11.1
874 1112 Douglas Brady Racing Greyhounds 32 30-34 Men 36 Mile 3:15:50 11.0
875 1220 James D'Amore Team Hot Dog/nextmeta 39 35-39 Men 36 Mile 3:17:00 11.0
876 1270 Amy Meldrum 38 30-39 Women 36 Mile 3:17:17 10.9
877 1611 Anthony Meier 60 55 & Older Men 36 Mile 3:18:57 10.9
878 1419 Loretta Holmes 45 40 & Older Women 36 Mile 3:20:41 10.8
879 1319 Jeremy Gephart 33 30-34 Men 36 Mile 3:28:14 10.4
880 1206 Wayne Crowther Team Toledo 61 55 & Older Men 36 Mile 3:29:02 10.3
881 1971 Amy Weik The Bonebell 37 30-39 Women 36 Mile 3:42:28 9.7
882 1690 Kevin Oneill Xxx Racing-Athletico 36 35-39 Men 36 Mile 3:42:28 9.7
883 1836 Martha Shue Big Ring Racing 37 30-39 Women 36 Mile 3:42:52 9.7